Terminal Aerodrome Forecast
Issued by NWS Blacksburg, VA

Current Version | Previous Version | Graphics & Text | Print | Product List | Glossary On
Versions: 1 2 3 4 5 6 7 8 9 10 11 12 13 14 15 16 17 18 19 20 21 22 23 24 25 26
000
FTUS41 KRNK 192320
TAFBLF
TAF
KBLF 192320Z 2000/2024 31006KT P6SM VCSH SCT035 BKN080
     FM200200 VRB03KT P6SM OVC035
     FM200700 25003KT 6SM BR SCT006 OVC025
     FM201300 27006KT P6SM BKN040
     FM201900 28008KT P6SM VCSH SCT030 BKN050=

USA.gov is the U.S. government's official web portal to all federal, state and local government web resources and services.